2015 La Tierra Torture Final

Saturday, May 2, 2015 8:30 AM (GMT-6) - Final results

Race info
Sport: Cycling - mtn cross-country
Location: Santa Fe, NM, United States
Start type: Mass start
Racers: 216
Timed on: iPad
Timed with: Webscorer PRO
Updated: Monday, August 10, 2015 9:35 PM (GMT-6)
Organized by: CORE Crew
Race website: www.core-crew.com

Contact organizer

Use this form to send an email to the organizer.

Your name
Your email address
Confirm email address
Message to organizer
Send

2015 La Tierra Torture Final

  • Pro & Category 1 Female - Overall
Place Bib Racer name Affiliation Category Age Gender Finish time
114Tanya BettisSports Systems Moutaintop Cycling W Cat 1 40-4945F 2:18:36.4--100%7.86%5.45%
211Tess Amer W Cat 1 19-2924F 2:21:03.1+2:26.7+1.76%98.27%6.23%3.78%
323Tiziana DehorneyLaughing Dog W Cat 1 Junior18F 2:24:53.2+6:16.8+4.53%95.67%3.68%1.17%
419Caroline ColonnaBraveheart W Cat 1 50+51F 2:25:12.4+6:36.0+4.76%95.45%3.47%0.95%
522Camryn SippyDurango Devo W Cat 1 Junior16F 2:27:59.1+9:22.7+6.77%93.66%1.62%-0.95%
612Samantha RynasNew Mexico Spokettes W Cat 1 19-2928F 2:32:14.5+13:38.1+9.84%91.04%-1.21%-3.85%
720Kim BearNew Mexico Spokette Racing Team W Cat 1 50+59F 2:45:57.1+27:20.7+19.73%83.52%-10.32%-13.20%
813Anona WhitleyGet Out! W Cat 1 30-3930F 2:47:29.3+28:52.9+20.84%82.76%-11.34%-14.25%
-17Karie MuellerTeam ANB/ Kordestani Cycling W Cat 1 50+50F DNF-----
-21Jessie LinderGetout! W Cat 1 Junior16F DNF-----
  • Pro & Category 1 Female - W Cat 1 19-29
Place Bib Racer name Affiliation Category Age Gender Finish time
111Tess Amer W Cat 1 19-2924F 2:21:03.1--100%3.82%3.82%
212Samantha RynasNew Mexico Spokettes W Cat 1 19-2928F 2:32:14.5+11:11.4+7.93%92.65%-3.82%-3.82%
  • Pro & Category 1 Female - W Cat 1 30-39
Place Bib Racer name Affiliation Category Age Gender Finish time
113Anona WhitleyGet Out! W Cat 1 30-3930F 2:47:29.3--100%0.00%0.00%
  • Pro & Category 1 Female - W Cat 1 40-49
Place Bib Racer name Affiliation Category Age Gender Finish time
114Tanya BettisSports Systems Moutaintop Cycling W Cat 1 40-4945F 2:18:36.4--100%0.00%0.00%
  • Pro & Category 1 Female - W Cat 1 50+
Place Bib Racer name Affiliation Category Age Gender Finish time
119Caroline ColonnaBraveheart W Cat 1 50+51F 2:25:12.4--100%6.67%6.67%
220Kim BearNew Mexico Spokette Racing Team W Cat 1 50+59F 2:45:57.1+20:44.7+14.29%87.50%-6.67%-6.67%
-17Karie MuellerTeam ANB/ Kordestani Cycling W Cat 1 50+50F DNF-----
  • Pro & Category 1 Female - W Cat 1 Junior
Place Bib Racer name Affiliation Category Age Gender Finish time
123Tiziana DehorneyLaughing Dog W Cat 1 Junior18F 2:24:53.2--100%1.06%1.06%
222Camryn SippyDurango Devo W Cat 1 Junior16F 2:27:59.1+3:05.9+2.14%97.91%-1.06%-1.06%
-21Jessie LinderGetout! W Cat 1 Junior16F DNF-----
  • Pro & Category 1 Male - Overall
Place Bib Racer name Affiliation Category Age Gender Finish time
11Damian CalvertSport Systems Mountaintop Cycling M Pro42M 1:53:39.3--100%15.02%14.73%
22Cameron BrennemanBike N Sport Racing M Pro38M 1:56:07.7+2:28.4+2.18%97.87%13.17%12.87%
34Randy FloresRA Racing Apparel/Trek M Pro44M 1:56:46.1+3:06.8+2.74%97.33%12.70%12.39%
463Joe PrinzivalliMimmo Espresso M Cat 1 50-5951M 2:01:06.4+7:27.1+6.56%93.85%9.45%9.14%
539Daniel AppeloDaniel Appelo M Cat 1 30-3938M 2:01:34.9+7:55.6+6.97%93.48%9.10%8.78%
645Chris EcksteinSport Systems Mountaintop Cycling M Cat 1 40-4941M 2:02:45.4+9:06.1+8.01%92.59%8.22%7.90%
750Mick Harris M Cat 1 40-4943M 2:02:47.4+9:08.1+8.04%92.56%8.19%7.87%
830Douglas TorresHigh Desert Bicycles M Cat 1 19-2924M 2:02:59.9+9:20.6+8.22%92.40%8.04%7.72%
93Niklas PodhraskiUniversity Of New Mexico M Pro21M 2:04:17.6+10:38.3+9.36%91.44%7.07%6.75%
1032Joshua BarnettStans No Tubes/Bicycle Company M Cat 1 19-2929M 2:04:37.7+10:58.4+9.65%91.20%6.82%6.49%
1164David SchulhoferRacing Apparel / Trek Racing M Cat 1 50-5951M 2:08:36.5+14:57.2+13.16%88.37%3.84%3.51%
1253Gaige SippyIron Horse Bicycle Classic M Cat 1 40-4947M 2:09:05.1+15:25.8+13.58%88.05%3.49%3.15%
1338Parmenides OrpinelNotubes/Bicycle Company M Cat 1 30-3937M 2:09:58.9+16:19.6+14.37%87.44%2.82%2.48%
1447Daniel SwintonBikeworks Albuquerque M Cat 1 40-4941M 2:11:08.4+17:29.1+15.38%86.67%1.95%1.61%
1531Mark CasteloThe Bicycle Company / NOTUBES New Mexico M Cat 1 19-2928M 2:11:39.0+17:59.7+15.83%86.33%1.57%1.23%
1648Marty MoriartySport Systems/Mountiantop Cycling M Cat 1 40-4942M 2:12:48.1+19:08.8+16.85%85.58%0.71%0.36%
1761David JordanTrek Superstore/Olev Rapido M Cat 1 50-5951M 2:13:46.0+20:06.7+17.70%84.97%-0.01%-0.36%
1849Jacob Gonzales M Cat 1 40-4943M 2:13:47.2+20:07.9+17.71%84.95%-0.03%-0.38%
1955Robert RomeroBike N Sport M Cat 1 40-4949M 2:14:29.7+20:50.4+18.34%84.51%-0.56%-0.91%
2068Tempest PeterRez Dog Racing M Cat 1 50-5952M 2:14:42.4+21:03.1+18.52%84.37%-0.72%-1.07%
2162David MountTeam Fitaos M Cat 1 50-5951M 2:16:23.9+22:44.6+20.01%83.33%-1.98%-2.34%
2246Jan GrandeGrande Adventure Tours M Cat 1 40-4941M 2:16:31.8+22:52.5+20.13%83.25%-2.08%-2.44%
2369Scott WongScott Wong M Cat 1 50-5957M 2:17:34.3+23:55.0+21.04%82.62%-2.86%-3.22%
2440Hadji CoronaRA Racing Apparel / Trek M Cat 1 30-3938M 2:19:29.6+25:50.3+22.73%81.48%-4.30%-4.66%
2536Gary BellZiavelo M Cat 1 30-3935M 2:21:41.3+28:02.0+24.67%80.21%-5.94%-6.31%
2675Jan BearBike N Sport M Cat 1 60+60M 2:22:31.9+28:52.6+25.41%79.74%-6.57%-6.94%
2754Michael Mangan M Cat 1 40-4948M 2:24:57.1+31:17.8+27.54%78.41%-8.38%-8.75%
2865Keevin SharpTeam ANB/Kordestani Cycling M Cat 1 50-5951M 2:27:05.4+33:26.1+29.42%77.27%-9.98%-10.36%
2960Greg GeubelleThe Bicycle Company M Cat 1 50-5951M 2:27:24.7+33:45.4+29.70%77.10%-10.22%-10.60%
3067Barry O'melinnBarry O'melinn M Cat 1 50-5952M 2:28:44.4+35:05.1+30.87%76.41%-11.21%-11.60%
3176Gary Johnson M Cat 1 60+62M 2:37:35.8+43:56.5+38.66%72.12%-17.83%-18.24%
3277Bill Blankenship M Cat 1 60+65M 2:53:11.8+59:32.5+52.39%65.62%-29.50%-29.95%
-35Patrick Brandt M Cat 1 30-3930M DNF-----
-52Matt PattonSports Systems Mountain Top Cycling Team M Cat 1 40-4944M DNF-----
  • Pro & Category 1 Male - M Cat 1 19-29
Place Bib Racer name Affiliation Category Age Gender Finish time
130Douglas TorresHigh Desert Bicycles M Cat 1 19-2924M 2:02:59.9--100%2.71%1.31%
232Joshua BarnettStans No Tubes/Bicycle Company M Cat 1 19-2929M 2:04:37.7+1:37.8+1.33%98.69%1.42%0.00%
331Mark CasteloThe Bicycle Company / NOTUBES New Mexico M Cat 1 19-2928M 2:11:39.0+8:39.1+7.03%93.43%-4.13%-5.63%
  • Pro & Category 1 Male - M Cat 1 30-39
Place Bib Racer name Affiliation Category Age Gender Finish time
139Daniel AppeloDaniel Appelo M Cat 1 30-3938M 2:01:34.9--100%8.71%9.76%
238Parmenides OrpinelNotubes/Bicycle Company M Cat 1 30-3937M 2:09:58.9+8:24.0+6.91%93.54%2.41%3.53%
340Hadji CoronaRA Racing Apparel / Trek M Cat 1 30-3938M 2:19:29.6+17:54.7+14.73%87.16%-4.74%-3.53%
436Gary BellZiavelo M Cat 1 30-3935M 2:21:41.3+20:06.4+16.54%85.81%-6.38%-5.16%
-35Patrick Brandt M Cat 1 30-3930M DNF-----
  • Pro & Category 1 Male - M Cat 1 40-49
Place Bib Racer name Affiliation Category Age Gender Finish time
145Chris EcksteinSport Systems Mountaintop Cycling M Cat 1 40-4941M 2:02:45.4--100%7.03%7.56%
250Mick Harris M Cat 1 40-4943M 2:02:47.4+0:02.0+0.03%99.97%7.00%7.54%
353Gaige SippyIron Horse Bicycle Classic M Cat 1 40-4947M 2:09:05.1+6:19.7+5.16%95.10%2.24%2.80%
447Daniel SwintonBikeworks Albuquerque M Cat 1 40-4941M 2:11:08.4+8:23.0+6.83%93.61%0.68%1.25%
548Marty MoriartySport Systems/Mountiantop Cycling M Cat 1 40-4942M 2:12:48.1+10:02.7+8.18%92.44%-0.58%0.00%
649Jacob Gonzales M Cat 1 40-4943M 2:13:47.2+11:01.8+8.99%91.76%-1.32%-0.74%
755Robert RomeroBike N Sport M Cat 1 40-4949M 2:14:29.7+11:44.3+9.56%91.27%-1.86%-1.28%
846Jan GrandeGrande Adventure Tours M Cat 1 40-4941M 2:16:31.8+13:46.4+11.22%89.91%-3.40%-2.81%
954Michael Mangan M Cat 1 40-4948M 2:24:57.1+22:11.7+18.08%84.69%-9.78%-9.15%
-52Matt PattonSports Systems Mountain Top Cycling Team M Cat 1 40-4944M DNF-----
  • Pro & Category 1 Male - M Cat 1 50-59
Place Bib Racer name Affiliation Category Age Gender Finish time
163Joe PrinzivalliMimmo Espresso M Cat 1 50-5951M 2:01:06.4--100%11.77%11.21%
264David SchulhoferRacing Apparel / Trek Racing M Cat 1 50-5951M 2:08:36.5+7:30.1+6.19%94.17%6.31%5.71%
361David JordanTrek Superstore/Olev Rapido M Cat 1 50-5951M 2:13:46.0+12:39.6+10.45%90.54%2.55%1.93%
468Tempest PeterRez Dog Racing M Cat 1 50-5952M 2:14:42.4+13:36.0+11.23%89.90%1.86%1.24%
562David MountTeam Fitaos M Cat 1 50-5951M 2:16:23.9+15:17.5+12.63%88.79%0.63%0.00%
669Scott WongScott Wong M Cat 1 50-5957M 2:17:34.3+16:27.9+13.60%88.03%-0.22%-0.86%
765Keevin SharpTeam ANB/Kordestani Cycling M Cat 1 50-5951M 2:27:05.4+25:59.0+21.45%82.34%-7.16%-7.84%
860Greg GeubelleThe Bicycle Company M Cat 1 50-5951M 2:27:24.7+26:18.3+21.72%82.16%-7.39%-8.07%
967Barry O'melinnBarry O'melinn M Cat 1 50-5952M 2:28:44.4+27:38.0+22.82%81.42%-8.36%-9.05%
  • Pro & Category 1 Male - M Cat 1 60+
Place Bib Racer name Affiliation Category Age Gender Finish time
175Jan BearBike N Sport M Cat 1 60+60M 2:22:31.9--100%9.66%9.56%
276Gary Johnson M Cat 1 60+62M 2:37:35.8+15:03.9+10.57%90.44%0.11%0.00%
377Bill Blankenship M Cat 1 60+65M 2:53:11.8+30:39.9+21.51%82.29%-9.77%-9.90%
  • Pro & Category 1 Male - M Pro
Place Bib Racer name Affiliation Category Age Gender Finish time
11Damian CalvertSport Systems Mountaintop Cycling M Pro42M 1:53:39.3--100%3.45%2.40%
22Cameron BrennemanBike N Sport Racing M Pro38M 1:56:07.7+2:28.4+2.18%97.87%1.34%0.27%
34Randy FloresRA Racing Apparel/Trek M Pro44M 1:56:46.1+3:06.8+2.74%97.33%0.80%-0.27%
43Niklas PodhraskiUniversity Of New Mexico M Pro21M 2:04:17.6+10:38.3+9.36%91.44%-5.59%-6.74%
  • Category 2 & SS Female - Overall
Place Bib Racer name Affiliation Category Age Gender Finish time
1232Julie VansomerenSports Systems Mountaintop Cycling W Cat 2 40-4948F 1:42:26.3--100%12.41%10.87%
2250Line RoaldETH Zürich W Single Speed28F 1:43:12.1+0:45.8+0.75%99.26%11.76%10.21%
3252Kim Meyer W Single Speed48F 1:47:04.0+4:37.7+4.52%95.68%8.46%6.84%
4221Samantha BearNew Mexico Spokette Racing Team W Cat 2 19-2927F 1:49:57.1+7:30.8+7.33%93.17%5.99%4.33%
5247Kate Prusack W Cat 2 50+63F 1:50:22.6+7:56.3+7.75%92.81%5.63%3.96%
6241Ginny Olcott W Cat 2 50+53F 1:53:27.5+11:01.2+10.76%90.29%2.99%1.28%
7248Morgan FortinHigh Desert Bicycles Racing Team W Cat 2 Junior14F 1:54:56.0+12:29.7+12.20%89.13%1.73%0.00%
8244Diana Hardy W Cat 2 50+56F 1:56:15.7+13:49.4+13.49%88.11%0.59%-1.16%
9242Kristen PetersonNew Mexico Spokettes Racing Team W Cat 2 50+54F 2:01:09.1+18:42.8+18.27%84.55%-3.59%-5.41%
10220JJ BearNew Mexico Spokette Racing Team W Cat 2 19-2925F 2:03:34.1+21:07.8+20.63%82.90%-5.65%-7.51%
11240Renee Volker-RectorSports System Mountaintop Cycling W Cat 2 50+52F 2:05:28.8+23:02.5+22.49%81.64%-7.29%-9.18%
12230Sarah FairGet Out! NM W Cat 2 40-4942F 2:13:43.0+31:16.7+30.53%76.61%-14.33%-16.34%
13225Joanna EcksteinSport Systems Mountaintop Cycling W Cat 2 30-3939F 2:18:50.4+36:24.1+35.54%73.78%-18.71%-20.80%
  • Category 2 & SS Female - W Cat 2 19-29
Place Bib Racer name Affiliation Category Age Gender Finish time
1221Samantha BearNew Mexico Spokette Racing Team W Cat 2 19-2927F 1:49:57.1--100%5.83%5.83%
2220JJ BearNew Mexico Spokette Racing Team W Cat 2 19-2925F 2:03:34.1+13:37.0+12.38%88.98%-5.83%-5.83%
  • Category 2 & SS Female - W Cat 2 30-39
Place Bib Racer name Affiliation Category Age Gender Finish time
1225Joanna EcksteinSport Systems Mountaintop Cycling W Cat 2 30-3939F 2:18:50.4--100%0.00%0.00%
  • Category 2 & SS Female - W Cat 2 40-49
Place Bib Racer name Affiliation Category Age Gender Finish time
1232Julie VansomerenSports Systems Mountaintop Cycling W Cat 2 40-4948F 1:42:26.3--100%13.24%13.24%
2230Sarah FairGet Out! NM W Cat 2 40-4942F 2:13:43.0+31:16.7+30.53%76.61%-13.24%-13.24%
  • Category 2 & SS Female - W Cat 2 50+
Place Bib Racer name Affiliation Category Age Gender Finish time
1247Kate Prusack W Cat 2 50+63F 1:50:22.6--100%5.94%5.06%
2241Ginny Olcott W Cat 2 50+53F 1:53:27.5+3:04.9+2.79%97.28%3.31%2.41%
3244Diana Hardy W Cat 2 50+56F 1:56:15.7+5:53.1+5.33%94.94%0.92%0.00%
4242Kristen PetersonNew Mexico Spokettes Racing Team W Cat 2 50+54F 2:01:09.1+10:46.5+9.76%91.11%-3.24%-4.21%
5240Renee Volker-RectorSports System Mountaintop Cycling W Cat 2 50+52F 2:05:28.8+15:06.2+13.68%87.96%-6.93%-7.93%
  • Category 2 & SS Female - W Cat 2 Junior
Place Bib Racer name Affiliation Category Age Gender Finish time
1248Morgan FortinHigh Desert Bicycles Racing Team W Cat 2 Junior14F 1:54:56.0--100%0.00%0.00%
  • Category 2 & SS Female - W Single Speed
Place Bib Racer name Affiliation Category Age Gender Finish time
1250Line RoaldETH Zürich W Single Speed28F 1:43:12.1--100%1.84%1.84%
2252Kim Meyer W Single Speed48F 1:47:04.0+3:51.9+3.75%96.39%-1.84%-1.84%
  • Category 2 & SS Male - Overall
Place Bib Racer name Affiliation Category Age Gender Finish time
1130Clark SmithTeam Bear M Cat 2 19-2925M 1:24:15.9--100%18.93%17.37%
2131Brian AlexanderBTI M Cat 2 19-2926M 1:24:56.8+0:40.9+0.81%99.20%18.28%16.71%
3104Mike ChapmanBroken Spoke M Single Speed43M 1:25:01.9+0:46.0+0.91%99.10%18.19%16.62%
4108Jonathan WilliamsSport Systems Mountaintop Cycling M Single Speed43M 1:25:26.1+1:10.2+1.39%98.63%17.81%16.23%
5160Dennis ChavezDuke City Wheelmen M Cat 2 40-4940M 1:26:04.0+1:48.1+2.14%97.91%17.20%15.61%
6128Andrew AuerYour Ad Here M Cat 2 19-2925M 1:27:17.1+3:01.2+3.58%96.54%16.03%14.41%
7142Reid Burgess M Cat 2 30-3933M 1:28:53.1+4:37.2+5.48%94.80%14.49%12.84%
8152Nigel Otto M Cat 2 30-3938M 1:29:08.1+4:52.2+5.78%94.54%14.25%12.60%
9110Chris CaseyThe Bicycle Company M Single Speed50M 1:29:56.0+5:40.1+6.73%93.70%13.48%11.82%
10135Bradley Williams M Cat 2 19-2929M 1:30:17.6+6:01.7+7.15%93.32%13.13%11.46%
11103Trent HartSubway M Single Speed40M 1:30:59.2+6:43.3+7.98%92.61%12.46%10.78%
12194Carlos McgarityFitaos M Cat 2 50-5951M 1:31:00.2+6:44.3+8.00%92.60%12.45%10.77%
13127Martin WardSpindoc M Cat 2 19-2923M 1:31:55.3+7:39.4+9.09%91.67%11.56%9.87%
14145Michael GomezBike N Sport M Cat 2 30-3934M 1:32:06.7+7:50.8+9.31%91.48%11.38%9.68%
15100Anatoly ZlotnikBoomslang M Single Speed31M 1:32:31.5+8:15.6+9.80%91.07%10.98%9.27%
16123Aidan Scott M Cat 2 Junior17M 1:32:46.2+8:30.3+10.09%90.83%10.75%9.03%
17161Riley HolmesBTI M Cat 2 40-4940M 1:33:33.6+9:17.7+11.03%90.07%9.99%8.26%
18190Joe FortinHigh Desert Bicycles Racing Team M Cat 2 50-5950M 1:33:50.5+9:34.6+11.36%89.79%9.72%7.98%
19211Carl GableTeamsantafe.Org M Cat 2 50-5957M 1:34:02.8+9:46.9+11.61%89.60%9.52%7.78%
20195Ries Robinson M Cat 2 50-5951M 1:34:09.9+9:54.0+11.75%89.49%9.41%7.67%
21177Jeff HumbersonHumb M Cat 2 40-4946M 1:34:10.7+9:54.8+11.76%89.47%9.39%7.65%
22192John HansenTeam Johnco M Cat 2 50-5951M 1:34:27.3+10:11.4+12.09%89.21%9.13%7.38%
23200Mark MicoTri Sport M Cat 2 50-5953M 1:34:39.4+10:23.5+12.33%89.02%8.93%7.18%
24198David Parker M Cat 2 50-5952M 1:35:15.2+10:59.3+13.04%88.46%8.36%6.60%
25208Jeff Dorwart M Cat 2 50-5956M 1:35:29.8+11:13.9+13.33%88.24%8.13%6.36%
26121Mason CalvertSport Systems Mountaintop Cycling Devo M Cat 2 Junior15M 1:35:32.0+11:16.1+13.37%88.20%8.09%6.32%
27216Don BauderFlathead Cycling M Cat 2 60+62M 1:35:49.4+11:33.5+13.72%87.94%7.81%6.04%
28179Stephen LegateHammer Nutrition/P2M M Cat 2 40-4947M 1:36:20.1+12:04.2+14.32%87.47%7.32%5.54%
29202Jim SquiresTrinity Sports M Cat 2 50-5953M 1:37:13.3+12:57.4+15.38%86.67%6.47%4.67%
30176Michael Garcia M Cat 2 40-4945M 1:38:50.1+14:34.2+17.29%85.26%4.91%3.09%
31173Chris CoonBig Wheel Racing M Cat 2 40-4944M 1:39:01.7+14:45.8+17.52%85.09%4.73%2.90%
32134Ivan SuarezN/A M Cat 2 19-2929M 1:39:11.1+14:55.2+17.71%84.96%4.58%2.74%
33155Phil McmanusLas Cruces Cyclist M Cat 2 30-3939M 1:39:59.2+15:43.3+18.66%84.28%3.81%1.96%
34105Tarik SalehMellow Velo M Single Speed43M 1:40:05.8+15:49.9+18.79%84.18%3.70%1.85%
35168Wiley Fairchild M Cat 2 40-4942M 1:40:24.3+16:08.4+19.15%83.93%3.40%1.55%
36201Scott PERSCHKEEndurance Obsession M Cat 2 50-5953M 1:40:27.6+16:11.7+19.22%83.88%3.35%1.49%
37210David BernsteinBikeworks M Cat 2 50-5957M 1:40:39.4+16:23.5+19.45%83.72%3.16%1.30%
38144Nicholas Garcia M Cat 2 30-3934M 1:41:14.6+16:58.7+20.15%83.23%2.60%0.73%
39122Max MountTeam Fitaos M Cat 2 Junior16M 1:41:44.1+17:28.2+20.73%82.83%2.12%0.24%
40178Anthony Chavez M Cat 2 40-4947M 1:41:59.0+17:43.1+21.03%82.63%1.88%0.00%
41197Eric Lerma M Cat 2 50-5952M 1:42:09.0+17:53.1+21.22%82.49%1.72%-0.16%
42172Matthew ArvisoColavita M Cat 2 40-4944M 1:42:28.0+18:12.1+21.60%82.24%1.42%-0.47%
43167Michael CahillSanta Fe Fat Tire Society M Cat 2 40-4942M 1:42:34.5+18:18.6+21.73%82.15%1.32%-0.58%
44205Jeffrey Schornack M Cat 2 50-5954M 1:43:14.4+18:58.5+22.52%81.62%0.68%-1.23%
45153Ari GilderCoyotes M Cat 2 30-3939M 1:43:29.9+19:14.0+22.82%81.42%0.43%-1.49%
46146Jaycob RossNew Mexico Sports And Fitness M Cat 2 30-3934M 1:43:35.5+19:19.6+22.94%81.34%0.34%-1.58%
47163Mike Mertz M Cat 2 40-4941M 1:43:51.0+19:35.1+23.24%81.14%0.09%-1.83%
48175Tony Blankenship M Cat 2 40-4945M 1:44:01.9+19:46.0+23.46%81.00%-0.09%-2.01%
49147Pedro Murga M Cat 2 30-3935M 1:44:14.8+19:58.9+23.71%80.83%-0.29%-2.22%
50124Tucker VanormerTeam F.I.T M Cat 2 Junior18M 1:45:41.2+21:25.3+25.42%79.73%-1.68%-3.63%
51166Karl Thomas M Cat 2 40-4941M 1:45:43.7+21:27.8+25.47%79.70%-1.72%-3.67%
52150Craig SaumLos Diablos Del Norte M Cat 2 30-3937M 1:46:09.2+21:53.3+25.98%79.38%-2.13%-4.09%
53206Gilbert Chavez M Cat 2 50-5955M 1:46:32.5+22:16.6+26.44%79.09%-2.50%-4.47%
54169Todd PilgerTeam Cross M Cat 2 40-4942M 1:46:42.4+22:26.5+26.63%78.97%-2.66%-4.63%
55199Michael Rector M Cat 2 50-5952M 1:47:18.4+23:02.5+27.34%78.53%-3.24%-5.22%
56125Dylan GondaTeam Clark Logic M Cat 2 19-2920M 1:47:31.1+23:15.2+27.60%78.37%-3.44%-5.43%
57180Dal HaynesSport Systems Mountaintop Cycling M Cat 2 40-4948M 1:47:54.1+23:38.2+28.05%78.09%-3.81%-5.80%
58101Rob Selina M Single Speed33M 1:48:09.0+23:53.1+28.35%77.91%-4.05%-6.05%
59215Bill RothNone Of The Above M Cat 2 60+61M 1:48:39.6+24:23.7+28.95%77.55%-4.54%-6.55%
60174Jason Gans M Cat 2 40-4944M 1:50:18.5+26:02.6+30.91%76.39%-6.12%-8.16%
61165Jason Ross M Cat 2 40-4941M 1:50:48.2+26:32.3+31.49%76.05%-6.60%-8.65%
62218Paul Graham M Cat 2 60+65M 1:51:17.7+27:01.8+32.08%75.71%-7.07%-9.13%
63162Jeff Melton M Cat 2 40-4941M 1:51:59.7+27:43.8+32.91%75.24%-7.75%-9.82%
64109Chris BettisSports Systems Mountaintop Cycling M Single Speed47M 1:52:44.3+28:28.4+33.79%74.74%-8.46%-10.55%
65143Paul Reichbach M Cat 2 30-3933M 1:52:50.5+28:34.6+33.91%74.68%-8.56%-10.65%
66181Anthony LarranagaDahl Jets M Cat 2 40-4948M 1:54:28.2+30:12.3+35.85%73.61%-10.13%-12.24%
67141Brian YoonBeaumont Rhinos M Cat 2 30-3931M 1:55:09.5+30:53.6+36.66%73.17%-10.79%-12.92%
68183Eric bernstein M Cat 2 40-4943M 1:57:21.0+33:05.1+39.26%71.81%-12.90%-15.07%
69154Joseph Johnson M Cat 2 30-3939M 1:57:21.2+33:05.3+39.27%71.80%-12.90%-15.07%
70149Ian McnairyLos Diablos Del Norte M Cat 2 30-3937M 1:58:27.4+34:11.5+40.58%71.14%-13.96%-16.15%
71133Bernie RodriguezEPFD M Cat 2 19-2928M 1:58:52.1+34:36.2+41.06%70.89%-14.36%-16.56%
72120Bryce BierwirthNM Devo M Cat 2 Junior15M 1:59:32.1+35:16.2+41.86%70.49%-15.00%-17.21%
73102Jarrod Mann M Single Speed34M 2:03:50.4+39:34.5+46.96%68.04%-19.14%-21.43%
74203Glenn Broughton M Cat 2 50-5954M 2:04:15.9+40:00.0+47.47%67.81%-19.55%-21.85%
75171Richard TriplettUnattached M Cat 2 40-4943M 2:04:45.6+40:29.7+48.06%67.54%-20.03%-22.33%
76191James Downs M Cat 2 50-5951M 2:09:32.7+45:16.8+53.74%65.05%-24.63%-27.03%
77217Richard MurrayTeam Abuta M Cat 2 60+63M 2:11:47.1+47:31.2+56.39%63.94%-26.79%-29.22%
78129Olin Brown M Cat 2 19-2925M 2:16:29.6+52:13.7+61.98%61.74%-31.32%-33.84%
79132Eric BergmanHeisenbergman M Cat 2 19-2926M 3:08:48.3+1:44:32.4+124.06%44.63%-81.64%-85.13%
-184Seth BushOlev Rapido - Trek Superstore M Cat 2 30-3938M DNF-----
-106Marion Vance M Single Speed43M DNF-----
-126Bertsch BegayeBison M Cat 2 19-2923M DNF-----
-193Ted Larsen M Cat 2 50-5951M DNF-----
-196Greg KrauseOlev Rapido/Trek Superstore M Cat 2 50-5952M DNF-----
  • Category 2 & SS Male - M Cat 2 19-29
Place Bib Racer name Affiliation Category Age Gender Finish time
1130Clark SmithTeam Bear M Cat 2 19-2925M 1:24:15.9--100%22.66%11.81%
2131Brian AlexanderBTI M Cat 2 19-2926M 1:24:56.8+0:40.9+0.81%99.20%22.04%11.10%
3128Andrew AuerYour Ad Here M Cat 2 19-2925M 1:27:17.1+3:01.2+3.58%96.54%19.89%8.65%
4135Bradley Williams M Cat 2 19-2929M 1:30:17.6+6:01.7+7.15%93.32%17.13%5.50%
5127Martin WardSpindoc M Cat 2 19-2923M 1:31:55.3+7:39.4+9.09%91.67%15.64%3.80%
6134Ivan SuarezN/A M Cat 2 19-2929M 1:39:11.1+14:55.2+17.71%84.96%8.97%-3.80%
7125Dylan GondaTeam Clark Logic M Cat 2 19-2920M 1:47:31.1+23:15.2+27.60%78.37%1.32%-12.52%
8133Bernie RodriguezEPFD M Cat 2 19-2928M 1:58:52.1+34:36.2+41.06%70.89%-9.10%-24.40%
9129Olin Brown M Cat 2 19-2925M 2:16:29.6+52:13.7+61.98%61.74%-25.27%-42.85%
10132Eric BergmanHeisenbergman M Cat 2 19-2926M 3:08:48.3+1:44:32.4+124.06%44.63%-73.28%-97.59%
-126Bertsch BegayeBison M Cat 2 19-2923M DNF-----
  • Category 2 & SS Male - M Cat 2 30-39
Place Bib Racer name Affiliation Category Age Gender Finish time
1142Reid Burgess M Cat 2 30-3933M 1:28:53.1--100%14.58%14.20%
2152Nigel Otto M Cat 2 30-3938M 1:29:08.1+0:15.0+0.28%99.72%14.34%13.96%
3145Michael GomezBike N Sport M Cat 2 30-3934M 1:32:06.7+3:13.6+3.63%96.50%11.47%11.08%
4155Phil McmanusLas Cruces Cyclist M Cat 2 30-3939M 1:39:59.2+11:06.1+12.49%88.90%3.91%3.48%
5144Nicholas Garcia M Cat 2 30-3934M 1:41:14.6+12:21.5+13.90%87.79%2.70%2.27%
6153Ari GilderCoyotes M Cat 2 30-3939M 1:43:29.9+14:36.8+16.44%85.88%0.53%0.09%
7146Jaycob RossNew Mexico Sports And Fitness M Cat 2 30-3934M 1:43:35.5+14:42.4+16.55%85.80%0.44%0.00%
8147Pedro Murga M Cat 2 30-3935M 1:44:14.8+15:21.7+17.28%85.26%-0.19%-0.63%
9150Craig SaumLos Diablos Del Norte M Cat 2 30-3937M 1:46:09.2+17:16.1+19.43%83.73%-2.02%-2.47%
10143Paul Reichbach M Cat 2 30-3933M 1:52:50.5+23:57.4+26.95%78.77%-8.45%-8.93%
11141Brian YoonBeaumont Rhinos M Cat 2 30-3931M 1:55:09.5+26:16.4+29.56%77.19%-10.68%-11.17%
12154Joseph Johnson M Cat 2 30-3939M 1:57:21.2+28:28.1+32.03%75.74%-12.78%-13.28%
13149Ian McnairyLos Diablos Del Norte M Cat 2 30-3937M 1:58:27.4+29:34.3+33.27%75.04%-13.84%-14.35%
-184Seth BushOlev Rapido - Trek Superstore M Cat 2 30-3938M DNF-----
  • Category 2 & SS Male - M Cat 2 40-49
Place Bib Racer name Affiliation Category Age Gender Finish time
1160Dennis ChavezDuke City Wheelmen M Cat 2 40-4940M 1:26:04.0--100%17.60%17.12%
2161Riley HolmesBTI M Cat 2 40-4940M 1:33:33.6+7:29.6+8.71%91.99%10.42%9.91%
3177Jeff HumbersonHumb M Cat 2 40-4946M 1:34:10.7+8:06.7+9.42%91.39%9.83%9.31%
4179Stephen LegateHammer Nutrition/P2M M Cat 2 40-4947M 1:36:20.1+10:16.1+11.93%89.34%7.76%7.24%
5176Michael Garcia M Cat 2 40-4945M 1:38:50.1+12:46.1+14.84%87.08%5.37%4.83%
6173Chris CoonBig Wheel Racing M Cat 2 40-4944M 1:39:01.7+12:57.7+15.06%86.91%5.19%4.64%
7168Wiley Fairchild M Cat 2 40-4942M 1:40:24.3+14:20.3+16.66%85.72%3.87%3.32%
8178Anthony Chavez M Cat 2 40-4947M 1:41:59.0+15:55.0+18.49%84.39%2.36%1.80%
9172Matthew ArvisoColavita M Cat 2 40-4944M 1:42:28.0+16:24.0+19.05%83.99%1.89%1.33%
10167Michael CahillSanta Fe Fat Tire Society M Cat 2 40-4942M 1:42:34.5+16:30.5+19.18%83.91%1.79%1.23%
11163Mike Mertz M Cat 2 40-4941M 1:43:51.0+17:47.0+20.66%82.88%0.57%0.00%
12175Tony Blankenship M Cat 2 40-4945M 1:44:01.9+17:57.9+20.87%82.73%0.40%-0.17%
13166Karl Thomas M Cat 2 40-4941M 1:45:43.7+19:39.7+22.84%81.40%-1.23%-1.81%
14169Todd PilgerTeam Cross M Cat 2 40-4942M 1:46:42.4+20:38.4+23.98%80.66%-2.17%-2.75%
15180Dal HaynesSport Systems Mountaintop Cycling M Cat 2 40-4948M 1:47:54.1+21:50.1+25.37%79.76%-3.31%-3.90%
16174Jason Gans M Cat 2 40-4944M 1:50:18.5+24:14.5+28.17%78.02%-5.61%-6.22%
17165Jason Ross M Cat 2 40-4941M 1:50:48.2+24:44.2+28.74%77.68%-6.09%-6.70%
18162Jeff Melton M Cat 2 40-4941M 1:51:59.7+25:55.7+30.13%76.85%-7.23%-7.84%
19181Anthony LarranagaDahl Jets M Cat 2 40-4948M 1:54:28.2+28:24.2+33.00%75.19%-9.60%-10.23%
20183Eric bernstein M Cat 2 40-4943M 1:57:21.0+31:17.0+36.35%73.34%-12.36%-13.00%
21171Richard TriplettUnattached M Cat 2 40-4943M 2:04:45.6+38:41.6+44.96%68.99%-19.45%-20.13%
  • Category 2 & SS Male - M Cat 2 50-59
Place Bib Racer name Affiliation Category Age Gender Finish time
1194Carlos McgarityFitaos M Cat 2 50-5951M 1:31:00.2--100%10.28%6.40%
2190Joe FortinHigh Desert Bicycles Racing Team M Cat 2 50-5950M 1:33:50.5+2:50.3+3.12%96.98%7.48%3.48%
3211Carl GableTeamsantafe.Org M Cat 2 50-5957M 1:34:02.8+3:02.6+3.34%96.76%7.28%3.27%
4195Ries Robinson M Cat 2 50-5951M 1:34:09.9+3:09.7+3.47%96.64%7.16%3.14%
5192John HansenTeam Johnco M Cat 2 50-5951M 1:34:27.3+3:27.1+3.79%96.35%6.88%2.85%
6200Mark MicoTri Sport M Cat 2 50-5953M 1:34:39.4+3:39.2+4.01%96.14%6.68%2.64%
7198David Parker M Cat 2 50-5952M 1:35:15.2+4:15.0+4.67%95.54%6.09%2.02%
8208Jeff Dorwart M Cat 2 50-5956M 1:35:29.8+4:29.6+4.94%95.29%5.85%1.77%
9202Jim SquiresTrinity Sports M Cat 2 50-5953M 1:37:13.3+6:13.1+6.83%93.60%4.15%0.00%
10201Scott PERSCHKEEndurance Obsession M Cat 2 50-5953M 1:40:27.6+9:27.4+10.39%90.59%0.96%-3.33%
11210David BernsteinBikeworks M Cat 2 50-5957M 1:40:39.4+9:39.2+10.61%90.41%0.76%-3.53%
12197Eric Lerma M Cat 2 50-5952M 1:42:09.0+11:08.8+12.25%89.09%-0.71%-5.07%
13205Jeffrey Schornack M Cat 2 50-5954M 1:43:14.4+12:14.2+13.45%88.15%-1.78%-6.19%
14206Gilbert Chavez M Cat 2 50-5955M 1:46:32.5+15:32.3+17.07%85.42%-5.04%-9.59%
15199Michael Rector M Cat 2 50-5952M 1:47:18.4+16:18.2+17.92%84.81%-5.79%-10.37%
16203Glenn Broughton M Cat 2 50-5954M 2:04:15.9+33:15.7+36.55%73.23%-22.51%-27.82%
17191James Downs M Cat 2 50-5951M 2:09:32.7+38:32.5+42.35%70.25%-27.72%-33.25%
-193Ted Larsen M Cat 2 50-5951M DNF-----
-196Greg KrauseOlev Rapido/Trek Superstore M Cat 2 50-5952M DNF-----
  • Category 2 & SS Male - M Cat 2 60+
Place Bib Racer name Affiliation Category Age Gender Finish time
1216Don BauderFlathead Cycling M Cat 2 60+62M 1:35:49.4--100%14.36%12.87%
2215Bill RothNone Of The Above M Cat 2 60+61M 1:48:39.6+12:50.2+13.40%88.19%2.89%1.20%
3218Paul Graham M Cat 2 60+65M 1:51:17.7+15:28.3+16.15%86.10%0.53%-1.20%
4217Richard MurrayTeam Abuta M Cat 2 60+63M 2:11:47.1+35:57.7+37.53%72.71%-17.78%-19.83%
  • Category 2 & SS Male - M Cat 2 Junior
Place Bib Racer name Affiliation Category Age Gender Finish time
1123Aidan Scott M Cat 2 Junior17M 1:32:46.2--100%9.98%8.81%
2121Mason CalvertSport Systems Mountaintop Cycling Devo M Cat 2 Junior15M 1:35:32.0+2:45.8+2.98%97.11%7.30%6.10%
3122Max MountTeam Fitaos M Cat 2 Junior16M 1:41:44.1+8:57.9+9.66%91.19%1.28%0.00%
4124Tucker VanormerTeam F.I.T M Cat 2 Junior18M 1:45:41.2+12:55.0+13.92%87.78%-2.56%-3.88%
5120Bryce BierwirthNM Devo M Cat 2 Junior15M 1:59:32.1+26:45.9+28.85%77.61%-15.99%-17.50%
  • Category 2 & SS Male - M Single Speed
Place Bib Racer name Affiliation Category Age Gender Finish time
1104Mike ChapmanBroken Spoke M Single Speed43M 1:25:01.9--100%13.89%8.10%
2108Jonathan WilliamsSport Systems Mountaintop Cycling M Single Speed43M 1:25:26.1+0:24.2+0.47%99.53%13.48%7.66%
3110Chris CaseyThe Bicycle Company M Single Speed50M 1:29:56.0+4:54.1+5.76%94.55%8.93%2.80%
4103Trent HartSubway M Single Speed40M 1:30:59.2+5:57.3+7.00%93.46%7.86%1.66%
5100Anatoly ZlotnikBoomslang M Single Speed31M 1:32:31.5+7:29.6+8.81%91.90%6.30%0.00%
6105Tarik SalehMellow Velo M Single Speed43M 1:40:05.8+15:03.9+17.72%84.95%-1.37%-8.18%
7101Rob Selina M Single Speed33M 1:48:09.0+23:07.1+27.19%78.62%-9.52%-16.89%
8109Chris BettisSports Systems Mountaintop Cycling M Single Speed47M 1:52:44.3+27:42.4+32.58%75.42%-14.17%-21.85%
9102Jarrod Mann M Single Speed34M 2:03:50.4+38:48.5+45.64%68.66%-25.41%-33.84%
-106Marion Vance M Single Speed43M DNF-----
  • Category 3 Female - Overall
Place Bib Racer name Affiliation Category Age Gender Finish time
1385Mickey FongNew Mexico Spokettes Racing Team W Cat 3 50+50F 55:47.2--100%21.31%20.80%
2397Hannah LinderGetout! W Cat 3 Junior14F 56:45.3+0:58.1+1.74%98.29%19.94%19.42%
3392Maripat GloverNM Spokettes Race Team W Cat 3 50+59F 1:00:52.9+5:05.7+9.13%91.63%14.12%13.56%
4373Mary ClarkPink Zias W Cat 3 30-3933F 1:01:00.6+5:13.4+9.36%91.44%13.94%13.38%
5376Sara Otto W Cat 3 30-3938F 1:01:31.5+5:44.3+10.29%90.67%13.21%12.65%
6365Ashley SeibertPink Zias W Cat 3 19-2928F 1:02:40.9+6:53.7+12.36%89.00%11.58%11.01%
7381Elizabeth Harcombe W Cat 3 40-4943F 1:03:06.0+7:18.8+13.11%88.41%10.99%10.41%
8370Betsy Ross W Cat 3 30-3930F 1:03:41.1+7:53.9+14.16%87.60%10.17%9.58%
9388Patsy Coles W Cat 3 50+51F 1:04:25.1+8:37.9+15.47%86.60%9.13%8.54%
10387Anne Marie PeckNew Mexico Spokettes Racing Team W Cat 3 50+50F 1:04:32.2+8:45.0+15.68%86.44%8.96%8.37%
11374Angie Higdon W Cat 3 30-3934F 1:05:43.6+9:56.4+17.82%84.88%7.29%6.68%
12375Carley ParriottPink Zias W Cat 3 30-3937F 1:08:15.0+12:27.8+22.34%81.74%3.73%3.10%
13383Courtney JanakCourtney Janak W Cat 3 40-4948F 1:10:26.0+14:38.8+26.25%79.20%0.65%0.00%
14380Angela Thomas W Cat 3 40-4940F 1:12:36.9+16:49.7+30.17%76.83%-2.43%-3.10%
15389Patricia Siegel W Cat 3 50+53F 1:13:58.5+18:11.3+32.60%75.41%-4.35%-5.03%
16395Kathy Thompson W Cat 3 50+66F 1:14:55.7+19:08.5+34.31%74.45%-5.69%-6.38%
17382Esther Arviso W Cat 3 40-4946F 1:15:38.4+19:51.2+35.59%73.75%-6.70%-7.39%
18386Teresa Mcdowell W Cat 3 50+50F 1:15:42.1+19:54.9+35.70%73.69%-6.78%-7.48%
19390Marcie Amendolagine W Cat 3 50+54F 1:15:45.9+19:58.7+35.81%73.63%-6.87%-7.57%
20371Jeanne Acosta W Cat 3 30-3931F 1:16:32.3+20:45.1+37.20%72.89%-7.96%-8.67%
21396Skylar RobinsonGet Out! NM W Cat 3 Junior10F 1:16:36.1+20:48.9+37.31%72.83%-8.05%-8.76%
22372Mona Ramlawi W Cat 3 30-3932F 1:16:54.8+21:07.6+37.87%72.53%-8.49%-9.20%
23304Jeanette Brasher W Cat 3 50+51F 1:20:18.8+24:31.6+43.97%69.46%-13.29%-14.03%
24377Debbie Hart W Cat 3 30-3939F 1:31:12.3+35:25.1+63.49%61.17%-28.65%-29.49%
25393Janet Rael W Cat 3 50+59F 1:43:18.8+47:31.6+85.19%54.00%-45.73%-46.68%
-391Carrie YoungNew Mexico Spokettes Racing Team W Cat 3 50+54F DNF-----
-394Martha Schlenger W Cat 3 50+59F DNF-----
  • Category 3 Female - W Cat 3 19-29
Place Bib Racer name Affiliation Category Age Gender Finish time
1365Ashley SeibertPink Zias W Cat 3 19-2928F 1:02:40.9--100%0.00%0.00%
  • Category 3 Female - W Cat 3 30-39
Place Bib Racer name Affiliation Category Age Gender Finish time
1373Mary ClarkPink Zias W Cat 3 30-3933F 1:01:00.6--100%13.59%8.92%
2376Sara Otto W Cat 3 30-3938F 1:01:31.5+0:30.9+0.84%99.16%12.86%8.16%
3370Betsy Ross W Cat 3 30-3930F 1:03:41.1+2:40.5+4.38%95.80%9.80%4.93%
4374Angie Higdon W Cat 3 30-3934F 1:05:43.6+4:43.0+7.73%92.82%6.91%1.88%
5375Carley ParriottPink Zias W Cat 3 30-3937F 1:08:15.0+7:14.4+11.87%89.39%3.34%-1.88%
6371Jeanne Acosta W Cat 3 30-3931F 1:16:32.3+15:31.7+25.45%79.71%-8.40%-14.26%
7372Mona Ramlawi W Cat 3 30-3932F 1:16:54.8+15:54.2+26.07%79.32%-8.93%-14.82%
8377Debbie Hart W Cat 3 30-3939F 1:31:12.3+30:11.7+49.49%66.89%-29.17%-36.15%
  • Category 3 Female - W Cat 3 40-49
Place Bib Racer name Affiliation Category Age Gender Finish time
1381Elizabeth Harcombe W Cat 3 40-4943F 1:03:06.0--100%10.43%11.78%
2383Courtney JanakCourtney Janak W Cat 3 40-4948F 1:10:26.0+7:20.0+11.62%89.59%0.02%1.53%
3380Angela Thomas W Cat 3 40-4940F 1:12:36.9+9:30.9+15.08%86.90%-3.08%-1.53%
4382Esther Arviso W Cat 3 40-4946F 1:15:38.4+12:32.4+19.87%83.42%-7.37%-5.75%
  • Category 3 Female - W Cat 3 50+
Place Bib Racer name Affiliation Category Age Gender Finish time
1385Mickey FongNew Mexico Spokettes Racing Team W Cat 3 50+50F 55:47.2--100%23.54%25.07%
2392Maripat GloverNM Spokettes Race Team W Cat 3 50+59F 1:00:52.9+5:05.7+9.13%91.63%16.56%18.23%
3388Patsy Coles W Cat 3 50+51F 1:04:25.1+8:37.9+15.47%86.60%11.71%13.48%
4387Anne Marie PeckNew Mexico Spokettes Racing Team W Cat 3 50+50F 1:04:32.2+8:45.0+15.68%86.44%11.55%13.32%
5389Patricia Siegel W Cat 3 50+53F 1:13:58.5+18:11.3+32.60%75.41%-1.39%0.64%
6395Kathy Thompson W Cat 3 50+66F 1:14:55.7+19:08.5+34.31%74.45%-2.70%-0.64%
7386Teresa Mcdowell W Cat 3 50+50F 1:15:42.1+19:54.9+35.70%73.69%-3.75%-1.68%
8390Marcie Amendolagine W Cat 3 50+54F 1:15:45.9+19:58.7+35.81%73.63%-3.84%-1.76%
9304Jeanette Brasher W Cat 3 50+51F 1:20:18.8+24:31.6+43.97%69.46%-10.08%-7.87%
10393Janet Rael W Cat 3 50+59F 1:43:18.8+47:31.6+85.19%54.00%-41.60%-38.77%
-391Carrie YoungNew Mexico Spokettes Racing Team W Cat 3 50+54F DNF-----
-394Martha Schlenger W Cat 3 50+59F DNF-----
  • Category 3 Female - W Cat 3 Junior
Place Bib Racer name Affiliation Category Age Gender Finish time
1397Hannah LinderGetout! W Cat 3 Junior14F 56:45.3--100%14.88%14.88%
2396Skylar RobinsonGet Out! NM W Cat 3 Junior10F 1:16:36.1+19:50.8+34.97%74.09%-14.88%-14.88%
  • Category 3 Male - Overall
Place Bib Racer name Affiliation Category Age Gender Finish time
1314Brandon ObrienBike N Sport Racing Team M Cat 3 30-3933M 44:28.2--100%24.56%21.37%
2335Jeff KrienkeUnited States Military Cycling Team M Cat 3 50-5951M 46:09.3+1:41.1+3.79%96.35%21.70%18.39%
3350Teddy Jaramillo M Cat 3 Junior16M 46:21.8+1:53.6+4.26%95.92%21.34%18.02%
4353Gavin LaurGet Out! M Cat 3 Junior17M 47:23.6+2:55.4+6.57%93.83%19.60%16.20%
5302Stuart Rector M Cat 3 19-2928M 47:28.1+2:59.9+6.74%93.68%19.47%16.06%
6305Lewis StavrowskyStretch M Cat 3 Junior15M 47:41.6+3:13.4+7.25%93.24%19.09%15.67%
7358Aidan BondWhole Athlete/Specialized M Cat 3 Junior12M 49:00.6+4:32.4+10.21%90.74%16.85%13.34%
8361Ivan SippyDurango Devo M Cat 3 Junior12M 49:26.6+4:58.4+11.18%89.94%16.12%12.57%
9303Jonathan YoungDeath Monger M Cat 3 19-2929M 49:56.1+5:27.9+12.29%89.06%15.28%11.70%
10345John Evaldson M Cat 3 60+60M 50:16.1+5:47.9+13.04%88.47%14.72%11.11%
11331Julian Paiz M Cat 3 30-3930M 50:39.5+6:11.3+13.92%87.78%14.06%10.42%
12352Beckett Maestas M Cat 3 Junior16M 50:46.5+6:18.3+14.18%87.58%13.86%10.22%
13320JT Gallegos M Cat 3 40-4942M 51:09.8+6:41.6+15.05%86.92%13.20%9.53%
14337Brian Birk M Cat 3 50-5955M 51:51.6+7:23.4+16.62%85.75%12.02%8.30%
15364Emmett BeckwithTeam Fitaos M Cat 3 Junior14M 52:53.6+8:25.4+18.94%84.07%10.26%6.47%
16312Brett Taylor M Cat 3 30-3931M 52:58.2+8:30.0+19.11%83.95%10.13%6.34%
17351Jackson Lent-Koop M Cat 3 Junior16M 53:03.3+8:35.1+19.31%83.82%9.99%6.19%
18317Mike Hensley M Cat 3 30-3938M 53:42.6+9:14.4+20.78%82.80%8.88%5.03%
19346Don Hicks M Cat 3 60+60M 54:34.5+10:06.3+22.72%81.48%7.41%3.50%
20321Dan Lent-Koop M Cat 3 40-4942M 55:11.3+10:43.1+24.10%80.58%6.37%2.41%
21329Michael Vigil M Cat 3 40-4948M 55:23.9+10:55.7+24.57%80.27%6.02%2.04%
22323Tiago StockSanta Fe Striders M Cat 3 40-4943M 56:33.2+12:05.0+27.17%78.63%4.06%0.00%
23348Pat Brown M Cat 3 60+63M 56:44.5+12:16.3+27.60%78.37%3.74%-0.33%
24354Carlos Estrada M Cat 3 Junior18M 56:50.9+12:22.7+27.84%78.23%3.56%-0.52%
25360Rosby RobinsonGet Out! NM M Cat 3 Junior12M 58:07.2+13:39.0+30.69%76.51%1.40%-2.77%
26301Kevin WilliamsTeam Bear M Cat 3 19-2925M 58:17.4+13:49.2+31.08%76.29%1.11%-3.07%
27363Gabriel Maestas M Cat 3 Junior13M 58:52.1+14:23.9+32.38%75.54%0.13%-4.09%
28315Matt Williams M Cat 3 30-3933M 58:59.6+14:31.4+32.66%75.38%-0.08%-4.31%
29313Marek Jaszczuk M Cat 3 30-3932M 59:40.0+15:11.8+34.17%74.53%-1.23%-5.51%
30339Stephen Mullens M Cat 3 50-5956M 1:01:19.3+16:51.1+37.89%72.52%-4.03%-8.43%
31340Tim GaffneyTeam Gaffney M Cat 3 50-5958M 1:01:55.0+17:26.8+39.23%71.82%-5.04%-9.48%
32362Michael A. Gomez M Cat 3 Junior13M 1:02:47.4+18:19.2+41.20%70.82%-6.53%-11.03%
33357Noah VigilGet Out M Cat 3 Junior11M 1:03:11.2+18:43.0+42.09%70.38%-7.20%-11.73%
34336Manuel Gutierrez M Cat 3 50-5952M 1:04:08.8+19:40.6+44.25%69.33%-8.83%-13.43%
35322Cameron Phillips M Cat 3 40-4942M 1:04:59.0+20:30.8+46.13%68.43%-10.25%-14.91%
36324Wil Cone M Cat 3 40-4944M 1:06:53.0+22:24.8+50.40%66.49%-13.47%-18.27%
37330Thomas Rael M Cat 3 40-4949M 1:07:15.6+22:47.4+51.25%66.12%-14.11%-18.93%
38356Myles CalvertSport Systems Mountaintop Cycling Devo M Cat 3 Junior11M 1:09:10.6+24:42.4+55.56%64.28%-17.36%-22.32%
39355Harper Higdon M Cat 3 Junior10M 1:14:25.6+29:57.4+67.36%59.75%-26.27%-31.60%
40316Joe Lewis M Cat 3 30-3936M 1:20:06.1+35:37.9+80.13%55.52%-35.89%-41.64%
41349Eddie Lewis M Cat 3 60+66M 1:20:09.3+35:41.1+80.25%55.48%-35.99%-41.73%
42310Jaymes BegayeBison M Cat 3 30-3931M 1:27:38.7+43:10.5+97.09%50.74%-48.69%-54.98%
43326John LongworthTeam Longworth M Cat 3 40-4946M 1:46:03.8+1:01:35.6+138.51%41.93%-79.94%-87.55%
-325Tze Yong M Cat 3 40-4944M DNF-----
-327Christopher Gillen M Cat 3 40-4947M DNF-----
-328Christopher Mamula M Cat 3 40-4948M DNF-----
-347Paul LaurSpindoc Racing M Cat 3 60+60M DNF-----
-359Case ManifoldSports Systems Mountaintop Cycling M Cat 3 Junior12M DNF-----
  • Category 3 Male - M Cat 3 19-29
Place Bib Racer name Affiliation Category Age Gender Finish time
1302Stuart Rector M Cat 3 19-2928M 47:28.1--100%8.53%4.94%
2303Jonathan YoungDeath Monger M Cat 3 19-2929M 49:56.1+2:28.0+5.20%95.06%3.78%0.00%
3301Kevin WilliamsTeam Bear M Cat 3 19-2925M 58:17.4+10:49.3+22.80%81.43%-12.32%-16.73%
  • Category 3 Male - M Cat 3 30-39
Place Bib Racer name Affiliation Category Age Gender Finish time
1314Brandon ObrienBike N Sport Racing Team M Cat 3 30-3933M 44:28.2--100%27.13%21.08%
2331Julian Paiz M Cat 3 30-3930M 50:39.5+6:11.3+13.92%87.78%16.99%10.10%
3312Brett Taylor M Cat 3 30-3931M 52:58.2+8:30.0+19.11%83.95%13.20%6.00%
4317Mike Hensley M Cat 3 30-3938M 53:42.6+9:14.4+20.78%82.80%11.99%4.69%
5315Matt Williams M Cat 3 30-3933M 58:59.6+14:31.4+32.66%75.38%3.33%-4.69%
6313Marek Jaszczuk M Cat 3 30-3932M 59:40.0+15:11.8+34.17%74.53%2.23%-5.88%
7316Joe Lewis M Cat 3 30-3936M 1:20:06.1+35:37.9+80.13%55.52%-31.26%-42.15%
8310Jaymes BegayeBison M Cat 3 30-3931M 1:27:38.7+43:10.5+97.09%50.74%-43.62%-55.53%
  • Category 3 Male - M Cat 3 40-49
Place Bib Racer name Affiliation Category Age Gender Finish time
1320JT Gallegos M Cat 3 40-4942M 51:09.8--100%21.81%15.81%
2321Dan Lent-Koop M Cat 3 40-4942M 55:11.3+4:01.5+7.87%92.71%15.66%9.18%
3329Michael Vigil M Cat 3 40-4948M 55:23.9+4:14.1+8.28%92.36%15.34%8.84%
4323Tiago StockSanta Fe Striders M Cat 3 40-4943M 56:33.2+5:23.4+10.53%90.47%13.58%6.94%
5322Cameron Phillips M Cat 3 40-4942M 1:04:59.0+13:49.2+27.01%78.73%0.69%-6.94%
6324Wil Cone M Cat 3 40-4944M 1:06:53.0+15:43.2+30.73%76.50%-2.21%-10.06%
7330Thomas Rael M Cat 3 40-4949M 1:07:15.6+16:05.8+31.46%76.07%-2.79%-10.68%
8326John LongworthTeam Longworth M Cat 3 40-4946M 1:46:03.8+54:54.0+107.30%48.24%-62.09%-74.54%
-325Tze Yong M Cat 3 40-4944M DNF-----
-327Christopher Gillen M Cat 3 40-4947M DNF-----
-328Christopher Mamula M Cat 3 40-4948M DNF-----
  • Category 3 Male - M Cat 3 50-59
Place Bib Racer name Affiliation Category Age Gender Finish time
1335Jeff KrienkeUnited States Military Cycling Team M Cat 3 50-5951M 46:09.3--100%19.14%24.73%
2337Brian Birk M Cat 3 50-5955M 51:51.6+5:42.3+12.36%89.00%9.15%15.43%
3339Stephen Mullens M Cat 3 50-5956M 1:01:19.3+15:10.0+32.86%75.27%-7.43%0.00%
4340Tim GaffneyTeam Gaffney M Cat 3 50-5958M 1:01:55.0+15:45.7+34.15%74.54%-8.47%-0.97%
5336Manuel Gutierrez M Cat 3 50-5952M 1:04:08.8+17:59.5+38.98%71.95%-12.38%-4.61%
  • Category 3 Male - M Cat 3 60+
Place Bib Racer name Affiliation Category Age Gender Finish time
1345John Evaldson M Cat 3 60+60M 50:16.1--100%16.82%9.68%
2346Don Hicks M Cat 3 60+60M 54:34.5+4:18.4+8.57%92.11%9.70%1.95%
3348Pat Brown M Cat 3 60+63M 56:44.5+6:28.4+12.88%88.59%6.11%-1.95%
4349Eddie Lewis M Cat 3 60+66M 1:20:09.3+29:53.2+59.45%62.71%-32.63%-44.01%
-347Paul LaurSpindoc Racing M Cat 3 60+60M DNF-----
  • Category 3 Male - M Cat 3 Junior
Place Bib Racer name Affiliation Category Age Gender Finish time
1350Teddy Jaramillo M Cat 3 Junior16M 46:21.8--100%17.21%12.61%
2353Gavin LaurGet Out! M Cat 3 Junior17M 47:23.6+1:01.8+2.22%97.83%15.37%10.67%
3305Lewis StavrowskyStretch M Cat 3 Junior15M 47:41.6+1:19.8+2.87%97.21%14.84%10.11%
4358Aidan BondWhole Athlete/Specialized M Cat 3 Junior12M 49:00.6+2:38.8+5.71%94.60%12.49%7.62%
5361Ivan SippyDurango Devo M Cat 3 Junior12M 49:26.6+3:04.8+6.64%93.77%11.71%6.81%
6352Beckett Maestas M Cat 3 Junior16M 50:46.5+4:24.7+9.52%91.31%9.34%4.30%
7364Emmett BeckwithTeam Fitaos M Cat 3 Junior14M 52:53.6+6:31.8+14.08%87.65%5.55%0.30%
8351Jackson Lent-Koop M Cat 3 Junior16M 53:03.3+6:41.5+14.43%87.39%5.26%0.00%
9354Carlos Estrada M Cat 3 Junior18M 56:50.9+10:29.1+22.61%81.56%-1.51%-7.15%
10360Rosby RobinsonGet Out! NM M Cat 3 Junior12M 58:07.2+11:45.4+25.36%79.77%-3.78%-9.55%
11363Gabriel Maestas M Cat 3 Junior13M 58:52.1+12:30.3+26.97%78.76%-5.12%-10.96%
12362Michael A. Gomez M Cat 3 Junior13M 1:02:47.4+16:25.6+35.43%73.84%-12.12%-18.35%
13357Noah VigilGet Out M Cat 3 Junior11M 1:03:11.2+16:49.4+36.29%73.38%-12.83%-19.10%
14356Myles CalvertSport Systems Mountaintop Cycling Devo M Cat 3 Junior11M 1:09:10.6+22:48.8+49.21%67.02%-23.52%-30.39%
15355Harper Higdon M Cat 3 Junior10M 1:14:25.6+28:03.8+60.53%62.29%-32.90%-40.28%
-359Case ManifoldSports Systems Mountaintop Cycling M Cat 3 Junior12M DNF-----